Classifiche di sempre
Migliori tempi personali validi di team tra tutti gli eventi e le stagioni. Ogni team compare una sola volta per divisione.
Cerca per nome e apri la pagina in cui è classificato questo record di divisione.
23,833 team in classifica
| Pos. | Pos. AG | Team | Nazionalità | Categoria età | TempoMiglior tempo | Distacco |
|---|---|---|---|---|---|---|
| 7851 | #1099 | Piotr Jakubiak & Radosław JakubiakPOL · M 35-39 · AG #1099 | POL | M 35-39 | 1:06:20 | +17:49 |
| 7852 | #791 | Scott Matthews & Joseph CebulskiUSA · M 40-44 · AG #791 | USA | M 40-44 | 1:06:20 | +17:49 |
| 7853 | #1463 | Alexis Carrère & Jean-Christophe DangladesFRA · M 25-29 · AG #1463 | FRA | M 25-29 | 1:06:20 | +17:49 |
| 7854 | #1464 | Georg Niehaus & Samuel SchollaschRSA · M 25-29 · AG #1464 | RSA | M 25-29 | 1:06:20 | +17:49 |
| 7855 | #1100 | Max Fullalove & Miles FullaloveGBR · M 35-39 · AG #1100 | GBR | M 35-39 | 1:06:20 | +17:49 |
| 7856 | #3285 | Randy Vergers & Joey JohnsonNED · M 30-34 · AG #3285 | NED | M 30-34 | 1:06:20 | +17:49 |
| 7857 | #792 | Jacopo De Pra & Jacopo De Pra & Ducoli DamianoM 40-44 · AG #792 | -- | M 40-44 | 1:06:20 | +17:49 |
| 7858 | #3286 | Patrick Guthrie & Ben MullisM 30-34 · AG #3286 | -- | M 30-34 | 1:06:20 | +17:49 |
| 7859 | #80 | Önder Kadak & Markus TrögerM 50-54 · AG #80 | -- | M 50-54 | 1:06:20 | +17:49 |
| 7860 | #3287 | Dylan Keene & James ArcieriUSA · M 30-34 · AG #3287 | USA | M 30-34 | 1:06:20 | +17:49 |
| 7861 | #79 | John Kelly & Gary KernahanGBR · M 50-54 · AG #79 | GBR | M 50-54 | 1:06:20 | +17:49 |
| 7862 | #3288 | Darko Pirc & David OžboltCRO · M 30-34 · AG #3288 | CRO | M 30-34 | 1:06:20 | +17:49 |
| 7863 | #1101 | ANTONIO GALINDO MIRANDA & IVAN GONZALEZ HERNADEZESP · M 35-39 · AG #1101 | ESP | M 35-39 | 1:06:20 | +17:49 |
| 7864 | #497 | Conor Kenny & Nathan O’BrienIRL · M 16-24 · AG #497 | IRL | M 16-24 | 1:06:20 | +17:49 |
| 7865 | #3289 | lucas bochard & Tony RenelleFRA · M 30-34 · AG #3289 | FRA | M 30-34 | 1:06:20 | +17:49 |
| 7866 | #1465 | Corentin Thebault & Kevin MonnereauFRA · M 25-29 · AG #1465 | FRA | M 25-29 | 1:06:21 | +17:50 |
| 7867 | #1466 | Josh Godinez & Jake MarconiUSA · M 25-29 · AG #1466 | USA | M 25-29 | 1:06:21 | +17:50 |
| 7868 | #1467 | Thomas Fry & Conor BennettGBR · M 25-29 · AG #1467 | GBR | M 25-29 | 1:06:21 | +17:50 |
| 7869 | #2 | Guillaume Jomphe & William GarneauCAN · M 75-79 · AG #2 | CAN | M 75-79 | 1:06:21 | +17:50 |
| 7870 | #793 | Jim Elliott & Pete StaplesGBR · M 40-44 · AG #793 | GBR | M 40-44 | 1:06:21 | +17:50 |
| 7871 | #3291 | Harrison Seymour & Paul DysonGBR · M 30-34 · AG #3291 | GBR | M 30-34 | 1:06:21 | +17:50 |
| 7872 | #794 | Terry Cusick & Brendan CusickGBR · M 40-44 · AG #794 | GBR | M 40-44 | 1:06:21 | +17:50 |
| 7873 | #1102 | Ketan Sahadew & Sanveer HariparsadRSA · M 35-39 · AG #1102 | RSA | M 35-39 | 1:06:21 | +17:50 |
| 7874 | #795 | Chris Powell & Nick TurnerGBR · M 40-44 · AG #795 | GBR | M 40-44 | 1:06:21 | +17:50 |
| 7875 | #3292 | Chris Schneider & Kevin TuchenGER · M 30-34 · AG #3292 | GER | M 30-34 | 1:06:22 | +17:51 |
Pagina 315 di 954